Time;durP1;ratioP1;P1;durP2;ratioP2;P2;SDS_P1;SDS_P2;PMS_P1;PMS_P2;Temp;Humidity;BMP_temperature;BMP_pressure;BME280_temperature;BME280_humidity;BME280_pressure;Samples;Min_cycle;Max_cycle;Signal;HPM_P1;HPM_P2
2023/03/27 00:01:19;;;;;;;9.20;2.37;;;5.30;99.90;;;;;;5069536;28;20188;-55
2023/03/27 00:03:50;;;;;;;9.93;2.73;;;5.30;99.90;;;;;;5070183;28;20288;-55
2023/03/27 00:06:20;;;;;;;7.27;2.60;;;5.30;99.90;;;;;;5070685;28;20236;-55
2023/03/27 00:08:51;;;;;;;4.60;2.30;;;5.30;99.90;;;;;;5071753;28;20282;-55
2023/03/27 00:11:20;;;;;;;15.53;2.90;;;5.30;99.90;;;;;;5067067;28;20590;-54
2023/03/27 00:13:53;;;;;;;6.10;2.40;;;5.30;99.90;;;;;;5070745;28;20277;-55
2023/03/27 00:16:23;;;;;;;5.07;2.23;;;5.30;99.90;;;;;;5066096;28;20192;-55
2023/03/27 00:18:53;;;;;;;6.77;2.50;;;5.30;99.90;;;;;;5068724;28;20624;-50
2023/03/27 00:21:22;;;;;;;4.50;2.13;;;5.30;99.90;;;;;;5072845;28;20211;-54
2023/03/27 00:23:53;;;;;;;8.43;2.27;;;5.30;99.90;;;;;;5083926;28;20223;-55
2023/03/27 00:26:21;;;;;;;6.30;2.43;;;5.30;99.90;;;;;;5071682;28;20219;-53
2023/03/27 00:28:51;;;;;;;7.13;2.20;;;5.30;99.90;;;;;;5071893;28;20674;-55
2023/03/27 00:31:19;;;;;;;5.63;2.40;;;5.30;99.90;;;;;;5072692;28;20208;-54
2023/03/27 00:33:48;;;;;;;7.47;2.07;;;5.30;99.90;;;;;;5066664;28;20219;-52
2023/03/27 00:36:16;;;;;;;8.30;2.73;;;5.30;99.90;;;;;;5068049;28;20216;-54
2023/03/27 00:38:44;;;;;;;10.93;2.50;;;5.30;99.90;;;;;;5071704;28;20281;-55
2023/03/27 00:41:14;;;;;;;8.80;2.63;;;5.20;99.90;;;;;;5064699;28;20660;-53
2023/03/27 00:43:43;;;;;;;4.03;2.30;;;5.20;99.90;;;;;;5066456;28;20693;-53
2023/03/27 00:46:30;;;;;;;9.83;2.60;;;5.20;99.90;;;;;;5072887;28;20192;-51
2023/03/27 00:49:01;;;;;;;7.27;2.30;;;5.20;99.90;;;;;;5100302;28;20743;-55
2023/03/27 00:51:31;;;;;;;8.40;2.70;;;5.10;99.90;;;;;;5086455;28;20239;-55
2023/03/27 00:54:00;;;;;;;6.93;2.37;;;5.10;99.90;;;;;;5090793;28;20257;-54
2023/03/27 00:56:32;;;;;;;5.90;2.27;;;5.10;99.90;;;;;;5077964;28;20229;-53
2023/03/27 00:59:04;;;;;;;8.83;2.50;;;5.10;99.90;;;;;;5089400;28;20241;-53
2023/03/27 01:01:32;;;;;;;8.20;2.40;;;5.10;99.90;;;;;;5085192;28;20233;-55
2023/03/27 01:04:03;;;;;;;9.37;2.80;;;5.10;99.90;;;;;;5091650;28;20211;-54
2023/03/27 01:06:32;;;;;;;3.13;2.43;;;5.10;99.90;;;;;;5091622;28;20215;-53
2023/03/27 01:09:00;;;;;;;9.37;2.53;;;5.00;99.90;;;;;;5076397;28;20219;-54
2023/03/27 01:11:42;;;;;;;5.00;2.90;;;5.00;99.90;;;;;;5066754;28;20224;-54
2023/03/27 01:14:20;;;;;;;5.57;2.30;;;5.00;99.90;;;;;;5069274;28;20277;-55
2023/03/27 01:17:07;;;;;;;7.93;2.70;;;5.00;99.90;;;;;;5063687;28;21332;-55
2023/03/27 01:20:05;;;;;;;3.27;2.07;;;5.00;99.90;;;;;;5066507;28;20232;-54
2023/03/27 01:22:57;;;;;;;6.70;2.20;;;5.00;99.90;;;;;;5066620;28;20190;-54
2023/03/27 01:26:01;;;;;;;5.60;2.30;;;5.00;99.90;;;;;;5068247;28;20559;-53
2023/03/27 01:28:43;;;;;;;4.47;2.30;;;5.00;99.90;;;;;;5070756;28;20227;-53
2023/03/27 01:31:25;;;;;;;5.97;2.30;;;5.10;99.90;;;;;;5091380;28;20358;-55
2023/03/27 01:34:40;;;;;;;7.70;2.70;;;5.00;99.90;;;;;;5079477;28;20219;-55
2023/03/27 01:37:32;;;;;;;7.93;3.07;;;5.00;99.90;;;;;;5087404;28;20276;-55
2023/03/27 01:40:06;;;;;;;6.43;2.53;;;5.00;99.90;;;;;;5086608;28;20223;-55
2023/03/27 01:42:39;;;;;;;5.80;2.83;;;5.00;99.90;;;;;;5071848;28;20226;-53
2023/03/27 01:45:14;;;;;;;8.70;2.50;;;4.90;99.90;;;;;;5068673;28;20216;-55
2023/03/27 01:47:51;;;;;;;6.00;2.67;;;4.80;99.90;;;;;;5076236;28;20215;-55
2023/03/27 01:50:25;;;;;;;3.50;2.43;;;4.80;99.90;;;;;;5088272;28;20720;-55
2023/03/27 01:52:58;;;;;;;10.50;2.87;;;4.70;99.90;;;;;;5082613;28;20230;-53
2023/03/27 01:55:33;;;;;;;8.43;2.60;;;4.60;99.90;;;;;;5086687;28;20191;-54
2023/03/27 01:58:06;;;;;;;6.57;2.70;;;4.60;99.90;;;;;;5083220;28;20268;-53
2023/03/27 02:00:37;;;;;;;7.47;2.73;;;4.50;99.90;;;;;;5088228;28;20211;-55
2023/03/27 02:03:25;;;;;;;4.13;2.50;;;4.50;99.90;;;;;;5088254;28;20746;-52
2023/03/27 02:05:57;;;;;;;9.60;2.70;;;4.50;99.90;;;;;;5090595;28;20265;-53
2023/03/27 02:08:31;;;;;;;6.57;3.10;;;4.60;99.90;;;;;;5087220;28;20216;-54
2023/03/27 02:11:00;;;;;;;7.50;3.27;;;4.60;99.90;;;;;;5087422;28;20277;-52
2023/03/27 02:13:34;;;;;;;5.93;3.00;;;4.60;99.90;;;;;;5096454;28;20196;-53
2023/03/27 02:16:05;;;;;;;8.90;3.40;;;4.60;99.90;;;;;;5090690;28;20218;-53
2023/03/27 02:18:39;;;;;;;4.87;2.80;;;4.60;99.90;;;;;;5084040;28;20227;-55
2023/03/27 02:21:08;;;;;;;5.43;2.93;;;4.60;99.90;;;;;;5088519;28;20258;-55
2023/03/27 02:23:37;;;;;;;6.30;2.73;;;4.60;99.90;;;;;;5090041;28;20660;-53
2023/03/27 02:26:09;;;;;;;7.23;3.17;;;4.60;99.90;;;;;;5082901;28;20207;-54
2023/03/27 02:28:50;;;;;;;6.77;3.43;;;4.60;99.90;;;;;;5088189;28;20204;-55
2023/03/27 02:31:41;;;;;;;7.67;3.00;;;4.60;99.90;;;;;;5089386;28;20211;-55
2023/03/27 02:34:27;;;;;;;4.20;3.00;;;4.70;99.90;;;;;;5070106;28;20216;-54
2023/03/27 02:37:05;;;;;;;8.73;3.20;;;4.70;99.90;;;;;;5067260;28;20228;-55
2023/03/27 02:39:40;;;;;;;4.33;2.93;;;4.60;99.90;;;;;;5059231;28;20257;-54
2023/03/27 02:42:18;;;;;;;8.53;3.17;;;4.60;99.90;;;;;;5071026;28;20612;-55
2023/03/27 02:44:51;;;;;;;7.93;3.37;;;4.60;99.90;;;;;;5061686;28;20586;-55
2023/03/27 02:47:27;;;;;;;12.20;3.50;;;4.50;99.90;;;;;;5066220;28;20273;-56
2023/03/27 02:50:01;;;;;;;5.37;3.13;;;4.50;99.90;;;;;;5063304;28;20220;-55
2023/03/27 02:52:35;;;;;;;7.43;3.27;;;4.50;99.90;;;;;;5064632;28;20253;-55
2023/03/27 02:55:08;;;;;;;5.60;3.30;;;4.40;99.90;;;;;;5086843;28;20191;-54
2023/03/27 02:57:38;;;;;;;5.67;2.73;;;4.50;99.90;;;;;;5090893;28;20325;-55
2023/03/27 03:00:24;;;;;;;3.20;2.73;;;4.50;99.90;;;;;;5087067;28;20296;-54
2023/03/27 03:02:58;;;;;;;9.53;2.57;;;4.50;99.90;;;;;;5084478;28;20207;-55
2023/03/27 03:05:27;;;;;;;5.20;2.67;;;4.50;99.90;;;;;;5091266;28;20225;-55
2023/03/27 03:07:56;;;;;;;5.43;2.53;;;4.50;99.90;;;;;;5083914;28;20742;-55
2023/03/27 03:10:27;;;;;;;4.40;2.73;;;4.40;99.90;;;;;;5088940;28;20191;-53
2023/03/27 03:12:57;;;;;;;7.47;2.50;;;4.50;99.90;;;;;;5090466;28;20307;-55
2023/03/27 03:15:25;;;;;;;3.13;2.10;;;4.50;99.90;;;;;;5091111;28;20265;-56
2023/03/27 03:17:54;;;;;;;8.07;2.40;;;4.50;99.90;;;;;;5091695;28;20623;-55
2023/03/27 03:20:22;;;;;;;6.70;2.30;;;4.50;99.90;;;;;;5090825;28;20227;-53
2023/03/27 03:22:51;;;;;;;4.00;2.30;;;4.50;99.90;;;;;;5091517;28;21273;-55
2023/03/27 03:25:19;;;;;;;3.57;2.53;;;4.50;99.90;;;;;;5091926;28;20207;-53
2023/03/27 03:27:48;;;;;;;4.20;2.87;;;4.50;99.90;;;;;;5085857;28;20215;-55
2023/03/27 03:30:18;;;;;;;4.20;3.10;;;4.50;99.90;;;;;;5092557;28;20314;-55
2023/03/27 03:32:46;;;;;;;9.07;3.03;;;4.50;99.90;;;;;;5086667;28;20589;-54
2023/03/27 03:35:16;;;;;;;6.70;2.90;;;4.50;99.90;;;;;;5091455;28;20239;-54
2023/03/27 03:37:49;;;;;;;8.10;2.93;;;4.50;99.90;;;;;;5085304;28;20550;-55
2023/03/27 03:40:19;;;;;;;4.00;2.40;;;4.50;99.90;;;;;;5087265;28;20205;-53
2023/03/27 03:42:49;;;;;;;4.83;2.73;;;4.50;99.90;;;;;;5092387;28;20215;-55
2023/03/27 03:45:20;;;;;;;6.00;2.40;;;4.50;99.90;;;;;;5091872;28;20634;-55
2023/03/27 03:47:48;;;;;;;10.03;2.87;;;4.50;99.90;;;;;;5099790;28;20268;-53
2023/03/27 03:50:17;;;;;;;3.10;2.60;;;4.40;99.90;;;;;;5086037;28;20223;-54
2023/03/27 03:52:45;;;;;;;4.30;2.30;;;4.40;99.90;;;;;;5091680;28;20242;-54
2023/03/27 03:55:14;;;;;;;4.57;2.50;;;4.40;99.90;;;;;;5092584;28;20644;-55
2023/03/27 03:57:46;;;;;;;5.33;2.67;;;4.30;99.90;;;;;;5087269;28;20222;-53
2023/03/27 04:00:17;;;;;;;5.27;2.80;;;4.30;99.90;;;;;;5088684;28;20246;-54
2023/03/27 04:02:50;;;;;;;8.77;3.10;;;4.30;99.90;;;;;;5093009;28;20611;-54
2023/03/27 04:05:19;;;;;;;4.83;2.77;;;4.20;99.90;;;;;;5086502;28;20268;-55
2023/03/27 04:07:48;;;;;;;8.83;3.10;;;4.20;99.90;;;;;;5090773;28;20198;-54
2023/03/27 04:10:17;;;;;;;9.97;3.10;;;4.20;99.90;;;;;;5088722;28;20202;-53
2023/03/27 04:12:49;;;;;;;3.70;3.00;;;4.20;99.90;;;;;;5087722;28;20223;-52
2023/03/27 04:15:18;;;;;;;5.97;3.40;;;4.20;99.90;;;;;;5093384;28;20238;-54
2023/03/27 04:17:48;;;;;;;9.03;3.10;;;4.30;99.90;;;;;;5086935;28;20606;-55
2023/03/27 04:20:17;;;;;;;8.07;3.40;;;4.30;99.90;;;;;;5089647;28;20231;-55
2023/03/27 04:22:46;;;;;;;8.83;3.53;;;4.40;99.90;;;;;;5091378;28;20171;-55
2023/03/27 04:25:17;;;;;;;5.57;3.40;;;4.40;99.90;;;;;;5087216;28;20215;-55
2023/03/27 04:27:45;;;;;;;5.23;3.10;;;4.40;99.90;;;;;;5067309;28;20720;-55
2023/03/27 04:30:14;;;;;;;5.13;3.20;;;4.50;99.90;;;;;;5066676;28;20254;-54
2023/03/27 04:32:43;;;;;;;5.60;3.23;;;4.50;99.90;;;;;;5066317;28;20220;-52
2023/03/27 04:35:14;;;;;;;5.60;2.87;;;4.50;99.90;;;;;;5072782;28;20227;-54
2023/03/27 04:37:42;;;;;;;6.40;2.80;;;4.50;99.90;;;;;;5073965;28;20272;-51
2023/03/27 04:40:16;;;;;;;4.97;3.00;;;4.40;99.90;;;;;;5093967;28;20195;-56
2023/03/27 04:42:45;;;;;;;8.13;3.13;;;4.30;99.90;;;;;;5089166;28;20210;-55
2023/03/27 04:45:16;;;;;;;4.63;3.30;;;4.20;99.90;;;;;;5089817;28;20226;-53
2023/03/27 04:47:45;;;;;;;6.27;3.37;;;4.10;99.90;;;;;;5085535;28;20215;-54
2023/03/27 04:50:15;;;;;;;4.70;2.90;;;4.10;99.90;;;;;;5082877;28;20229;-53
2023/03/27 04:52:45;;;;;;;5.57;3.20;;;4.10;99.90;;;;;;5090233;28;20203;-54
2023/03/27 04:55:17;;;;;;;9.47;3.70;;;4.00;99.90;;;;;;5087975;28;20187;-55
2023/03/27 04:57:46;;;;;;;8.63;3.63;;;3.90;99.90;;;;;;5089627;28;20235;-54
2023/03/27 05:00:17;;;;;;;6.03;3.80;;;3.80;99.90;;;;;;5086304;28;20219;-55
2023/03/27 05:02:47;;;;;;;4.90;3.43;;;3.70;99.90;;;;;;5085531;28;21881;-55
2023/03/27 05:05:18;;;;;;;7.47;3.80;;;3.60;99.90;;;;;;5090324;28;20268;-54
2023/03/27 05:07:46;;;;;;;8.07;4.10;;;3.50;99.90;;;;;;5089977;28;20200;-53
2023/03/27 05:10:16;;;;;;;8.77;3.87;;;3.50;99.90;;;;;;5064313;28;20232;-53
2023/03/27 05:12:50;;;;;;;8.57;4.03;;;3.40;99.90;;;;;;5068996;28;20217;-53
2023/03/27 05:15:20;;;;;;;7.43;4.13;;;3.50;99.90;;;;;;5068178;28;20212;-54
2023/03/27 05:17:53;;;;;;;15.50;4.87;;;3.50;99.90;;;;;;5066485;28;20208;-54
2023/03/27 05:20:23;;;;;;;8.90;4.40;;;3.50;99.90;;;;;;5066620;28;20341;-53
2023/03/27 05:22:53;;;;;;;11.60;5.20;;;3.50;99.90;;;;;;5068998;28;20224;-52
2023/03/27 05:25:21;;;;;;;26.80;8.17;;;3.50;99.90;;;;;;5065835;28;20242;-52
2023/03/27 05:27:51;;;;;;;19.10;7.53;;;3.50;99.90;;;;;;5069592;28;20281;-51
2023/03/27 05:30:21;;;;;;;9.03;3.90;;;3.60;99.90;;;;;;5066919;28;20578;-54
2023/03/27 05:32:51;;;;;;;8.10;3.50;;;3.70;99.90;;;;;;5069182;28;20224;-54
2023/03/27 05:35:23;;;;;;;8.57;3.10;;;3.80;99.90;;;;;;5070853;28;21034;-54
2023/03/27 05:37:53;;;;;;;6.63;3.10;;;3.80;99.90;;;;;;5067264;28;20232;-53
2023/03/27 05:40:24;;;;;;;5.03;2.80;;;3.80;99.90;;;;;;5066038;28;20196;-54
2023/03/27 05:42:53;;;;;;;5.03;2.60;;;3.80;99.90;;;;;;5089127;28;20234;-55
2023/03/27 05:45:23;;;;;;;2.57;2.20;;;3.70;99.90;;;;;;5084413;28;20620;-55
2023/03/27 05:47:52;;;;;;;7.33;2.40;;;3.70;99.90;;;;;;5086198;28;20230;-54
2023/03/27 05:50:24;;;;;;;5.37;2.57;;;3.60;99.90;;;;;;5090743;28;20288;-55
2023/03/27 05:52:58;;;;;;;6.97;2.50;;;3.50;99.90;;;;;;5085305;28;20285;-52
2023/03/27 05:55:27;;;;;;;5.33;2.03;;;3.50;99.90;;;;;;5093318;28;20244;-55
2023/03/27 05:57:55;;;;;;;4.20;2.10;;;3.40;99.90;;;;;;5091282;28;20211;-54
2023/03/27 06:00:25;;;;;;;7.57;1.90;;;3.40;99.90;;;;;;5090938;28;20366;-55
2023/03/27 06:02:55;;;;;;;5.07;2.10;;;3.30;99.90;;;;;;5090733;27;20224;-55
2023/03/27 06:05:26;;;;;;;5.13;2.17;;;3.30;99.90;;;;;;5091609;28;20235;-55
2023/03/27 06:07:57;;;;;;;6.50;2.30;;;3.30;99.90;;;;;;5091876;27;20233;-55
2023/03/27 06:10:26;;;;;;;4.23;2.20;;;3.30;99.90;;;;;;5089603;28;20599;-55
2023/03/27 06:13:02;;;;;;;5.73;2.60;;;3.40;99.90;;;;;;5068302;28;20603;-55
2023/03/27 06:15:31;;;;;;;4.60;2.30;;;3.40;99.90;;;;;;5063791;28;20239;-55
2023/03/27 06:18:00;;;;;;;7.97;2.43;;;3.50;99.90;;;;;;5070986;28;20598;-55
2023/03/27 06:20:29;;;;;;;6.57;2.47;;;3.60;99.90;;;;;;5071168;28;20624;-54
2023/03/27 06:22:59;;;;;;;7.80;2.50;;;3.80;99.90;;;;;;5067092;28;20302;-55
2023/03/27 06:25:30;;;;;;;7.43;2.43;;;3.90;99.90;;;;;;5078036;28;20190;-55
2023/03/27 06:27:59;;;;;;;28.70;7.43;;;4.00;99.90;;;;;;5088280;28;20766;-58
2023/03/27 06:30:29;;;;;;;17.50;5.50;;;4.10;99.90;;;;;;5091258;28;20216;-53
2023/03/27 06:32:58;;;;;;;8.10;4.47;;;4.20;99.90;;;;;;5089476;28;20246;-54
2023/03/27 06:35:30;;;;;;;7.13;3.60;;;4.40;99.90;;;;;;5094157;28;20223;-51
2023/03/27 06:38:01;;;;;;;9.97;4.00;;;4.50;99.90;;;;;;5080942;28;20231;-55
2023/03/27 06:40:31;;;;;;;9.60;3.03;;;4.70;99.90;;;;;;5096248;28;20190;-54
2023/03/27 06:43:01;;;;;;;10.83;4.00;;;4.90;99.90;;;;;;5076081;28;20216;-54
2023/03/27 06:45:31;;;;;;;13.83;4.73;;;5.10;99.90;;;;;;5076571;28;20815;-56
2023/03/27 06:48:01;;;;;;;5.27;3.10;;;5.40;99.90;;;;;;5089676;28;20263;-55
2023/03/27 06:50:49;;;;;;;12.47;3.33;;;5.80;99.90;;;;;;5081233;28;20581;-55
2023/03/27 06:53:17;;;;;;;5.60;3.07;;;6.50;99.90;;;;;;5074724;28;20219;-55
2023/03/27 06:55:50;;;;;;;7.50;3.00;;;7.20;99.90;;;;;;5069825;28;20588;-56
2023/03/27 06:58:18;;;;;;;5.77;2.50;;;7.90;99.90;;;;;;5067708;28;20199;-55
2023/03/27 07:00:47;;;;;;;6.20;2.80;;;8.50;99.90;;;;;;5071595;28;20211;-55
2023/03/27 07:03:16;;;;;;;5.50;2.50;;;8.70;99.90;;;;;;5090516;28;20264;-54
2023/03/27 07:05:47;;;;;;;5.33;2.60;;;8.30;99.90;;;;;;5093022;28;20234;-55
2023/03/27 07:08:18;;;;;;;2.57;2.37;;;8.20;99.90;;;;;;5090236;28;20230;-56
2023/03/27 07:10:52;;;;;;;3.60;2.47;;;7.90;99.90;;;;;;5093898;28;20234;-55
2023/03/27 07:13:39;;;;;;;4.27;2.83;;;7.50;99.90;;;;;;5086469;28;20557;-55
2023/03/27 07:16:10;;;;;;;3.87;2.50;;;7.20;99.90;;;;;;5094800;28;20195;-56
2023/03/27 07:18:38;;;;;;;8.30;2.60;;;6.90;99.90;;;;;;5092160;28;20231;-56
2023/03/27 07:21:08;;;;;;;6.63;2.60;;;6.60;99.90;;;;;;5093598;28;20234;-56
2023/03/27 07:23:36;;;;;;;4.87;2.60;;;6.40;99.90;;;;;;5094695;27;20257;-56
2023/03/27 07:26:05;;;;;;;9.97;3.37;;;6.30;99.90;;;;;;5092985;28;20259;-54
2023/03/27 07:28:37;;;;;;;8.87;3.20;;;6.30;99.90;;;;;;5094074;28;20248;-54
2023/03/27 07:31:09;;;;;;;9.03;3.57;;;6.30;99.90;;;;;;5094235;28;20199;-55
2023/03/27 07:33:59;;;;;;;6.03;2.80;;;6.20;99.90;;;;;;5092212;28;20315;-55
2023/03/27 07:36:29;;;;;;;5.10;3.07;;;6.50;99.90;;;;;;5094150;28;20219;-56
2023/03/27 07:38:57;;;;;;;6.07;3.30;;;7.10;99.90;;;;;;5093606;28;20219;-56
2023/03/27 07:41:28;;;;;;;6.97;3.47;;;7.50;99.90;;;;;;5093843;28;20231;-55
2023/03/27 07:43:57;;;;;;;7.10;3.10;;;7.70;99.90;;;;;;5094263;28;20361;-56
2023/03/27 07:46:26;;;;;;;4.60;2.90;;;7.60;99.90;;;;;;5086204;28;20196;-54
2023/03/27 07:48:55;;;;;;;5.63;3.23;;;7.30;99.90;;;;;;5093868;28;20849;-55
2023/03/27 07:51:24;;;;;;;4.17;2.83;;;7.10;99.90;;;;;;5092628;28;20216;-56
2023/03/27 07:53:57;;;;;;;5.90;2.90;;;6.90;99.90;;;;;;5091524;28;20227;-56
2023/03/27 07:56:26;;;;;;;4.37;3.03;;;6.70;99.90;;;;;;5092253;28;20222;-54
2023/03/27 07:58:55;;;;;;;7.77;2.70;;;6.80;99.90;;;;;;5094689;28;20245;-55
2023/03/27 08:01:24;;;;;;;9.13;3.10;;;7.00;99.90;;;;;;5094700;28;20687;-56
2023/03/27 08:03:53;;;;;;;7.93;2.60;;;7.70;99.90;;;;;;5093697;28;20264;-56
2023/03/27 08:06:21;;;;;;;4.33;2.37;;;8.70;99.90;;;;;;5091956;28;20247;-57
2023/03/27 08:08:50;;;;;;;4.50;2.43;;;9.70;99.90;;;;;;5090903;28;20227;-56
2023/03/27 08:11:20;;;;;;;3.63;2.60;;;10.60;99.90;;;;;;5092587;28;20268;-56
2023/03/27 08:13:58;;;;;;;6.57;2.13;;;11.30;99.90;;;;;;5094151;28;20786;-57
2023/03/27 08:16:28;;;;;;;4.57;2.10;;;11.90;99.90;;;;;;5093644;28;20645;-57
2023/03/27 08:18:59;;;;;;;8.83;2.50;;;12.10;99.90;;;;;;5092196;28;20231;-57
2023/03/27 08:21:30;;;;;;;6.87;2.50;;;12.10;99.90;;;;;;5093682;28;20708;-56
2023/03/27 08:23:59;;;;;;;7.53;2.57;;;12.50;99.90;;;;;;5085117;28;20216;-57
2023/03/27 08:26:29;;;;;;;9.93;2.63;;;12.60;99.90;;;;;;5082108;28;20276;-56
2023/03/27 08:28:57;;;;;;;9.70;2.80;;;12.20;99.90;;;;;;5087819;28;20280;-56
2023/03/27 08:31:28;;;;;;;7.37;2.67;;;11.70;99.90;;;;;;5073679;28;20594;-56
2023/03/27 08:33:56;;;;;;;8.90;2.80;;;11.00;99.90;;;;;;5073167;28;20216;-56
2023/03/27 08:36:26;;;;;;;8.83;2.70;;;10.30;99.90;;;;;;5076271;28;20231;-56
2023/03/27 08:38:54;;;;;;;5.37;2.20;;;9.70;99.90;;;;;;5078841;28;20216;-56
2023/03/27 08:41:29;;;;;;;7.43;2.50;;;9.30;99.90;;;;;;5071872;28;20273;-56
2023/03/27 08:44:02;;;;;;;4.63;2.37;;;9.10;99.90;;;;;;5081374;28;20235;-56
2023/03/27 08:46:37;;;;;;;5.13;2.50;;;8.80;99.90;;;;;;5068734;28;20551;-56
2023/03/27 08:49:13;;;;;;;6.27;2.30;;;8.50;99.90;;;;;;5072019;28;20588;-55
2023/03/27 08:51:46;;;;;;;7.33;3.03;;;8.20;99.90;;;;;;5075695;28;20306;-56
2023/03/27 08:54:18;;;;;;;4.80;2.50;;;8.00;99.90;;;;;;5075735;28;20216;-55
2023/03/27 08:56:49;;;;;;;16.67;4.20;;;8.00;99.90;;;;;;5073583;28;20224;-56
2023/03/27 08:59:19;;;;;;;10.93;5.30;;;7.90;99.90;;;;;;5075557;28;20224;-54
2023/03/27 09:01:56;;;;;;;14.90;7.97;;;7.80;99.90;;;;;;5076442;28;20743;-56
2023/03/27 09:04:34;;;;;;;9.10;3.07;;;7.80;99.90;;;;;;5093954;28;20207;-55
2023/03/27 09:07:09;;;;;;;8.27;2.73;;;7.80;99.90;;;;;;5084716;28;20215;-57
2023/03/27 09:09:51;;;;;;;5.20;2.07;;;7.80;99.90;;;;;;5086164;28;20276;-56
2023/03/27 09:12:36;;;;;;;5.53;2.20;;;7.60;99.90;;;;;;5093077;28;20534;-55
2023/03/27 09:15:11;;;;;;;6.17;2.03;;;7.40;99.90;;;;;;5092470;28;20226;-57
2023/03/27 09:17:44;;;;;;;6.93;2.13;;;7.40;99.90;;;;;;5089147;28;20211;-56
2023/03/27 09:20:17;;;;;;;2.40;1.73;;;7.40;99.90;;;;;;5090279;28;20257;-55
2023/03/27 09:22:51;;;;;;;5.90;2.10;;;7.50;99.90;;;;;;5085639;28;20183;-56
2023/03/27 09:25:24;;;;;;;3.50;2.03;;;7.70;99.90;;;;;;5103904;28;20557;-55
2023/03/27 09:27:55;;;;;;;3.30;2.17;;;7.90;99.90;;;;;;5089910;28;20240;-56
2023/03/27 09:30:26;;;;;;;6.50;2.30;;;8.10;99.90;;;;;;5098046;28;20258;-56
2023/03/27 09:32:59;;;;;;;2.70;2.37;;;8.20;99.90;;;;;;5092186;28;20257;-56
2023/03/27 09:35:27;;;;;;;2.07;1.70;;;8.60;99.90;;;;;;5092491;28;20318;-57
2023/03/27 09:38:00;;;;;;;4.77;2.20;;;9.10;99.90;;;;;;5089976;28;20227;-54
2023/03/27 09:40:36;;;;;;;3.37;2.37;;;9.60;99.90;;;;;;5084667;28;20192;-56
2023/03/27 09:43:15;;;;;;;8.97;3.13;;;10.30;99.90;;;;;;5096299;28;20214;-54
2023/03/27 09:45:46;;;;;;;5.33;2.20;;;11.00;99.90;;;;;;5083902;28;20227;-57
2023/03/27 09:48:23;;;;;;;1.80;1.57;;;12.10;99.90;;;;;;5092996;28;20216;-57
2023/03/27 09:50:52;;;;;;;2.90;1.80;;;13.30;99.90;;;;;;5066932;28;20251;-57
2023/03/27 09:53:21;;;;;;;2.77;1.80;;;13.90;99.90;;;;;;5067247;28;20242;-57
2023/03/27 09:55:53;;;;;;;3.33;2.00;;;14.20;99.90;;;;;;5072328;28;20239;-57
2023/03/27 09:58:32;;;;;;;3.57;2.10;;;14.20;99.90;;;;;;5072301;28;20250;-57
2023/03/27 10:01:09;;;;;;;6.23;2.27;;;14.00;99.90;;;;;;5074514;28;20208;-57
2023/03/27 10:03:39;;;;;;;6.47;2.00;;;12.80;99.90;;;;;;5074305;28;20312;-57
2023/03/27 10:06:10;;;;;;;4.03;2.10;;;11.50;99.90;;;;;;5066219;28;20682;-56
2023/03/27 10:08:40;;;;;;;6.30;2.63;;;11.60;99.90;;;;;;5075550;28;20229;-56
2023/03/27 10:11:16;;;;;;;7.13;2.17;;;12.20;99.90;;;;;;5065480;28;20558;-56
2023/03/27 10:13:48;;;;;;;3.80;1.83;;;12.60;99.90;;;;;;5071999;28;20190;-57
2023/03/27 10:16:18;;;;;;;3.33;2.10;;;13.50;99.90;;;;;;5096532;28;20219;-57
2023/03/27 10:18:49;;;;;;;3.70;1.97;;;14.80;99.90;;;;;;5095284;28;20301;-57
2023/03/27 10:21:25;;;;;;;4.70;2.20;;;15.40;99.90;;;;;;5089082;28;20239;-58
2023/03/27 10:24:00;;;;;;;3.37;1.90;;;15.40;99.90;;;;;;5090029;28;20727;-57
2023/03/27 10:26:32;;;;;;;5.67;2.10;;;15.30;99.90;;;;;;5095336;28;20302;-57
2023/03/27 10:29:20;;;;;;;10.40;2.17;;;15.60;99.90;;;;;;5095855;28;20219;-58
2023/03/27 10:31:51;;;;;;;6.77;2.00;;;16.10;99.90;;;;;;5084052;28;20654;-57
2023/03/27 10:34:36;;;;;;;5.03;2.17;;;16.80;99.90;;;;;;5075321;28;20201;-57
2023/03/27 10:37:19;;;;;;;7.00;2.60;;;17.40;99.90;;;;;;5075685;28;20237;-59
2023/03/27 10:39:47;;;;;;;3.70;1.90;;;17.30;99.90;;;;;;5077549;28;20717;-57
2023/03/27 10:42:17;;;;;;;5.17;1.70;;;16.50;99.90;;;;;;5072623;28;20628;-57
2023/03/27 10:44:48;;;;;;;2.70;1.90;;;16.10;99.90;;;;;;5073491;28;20293;-57
2023/03/27 10:47:19;;;;;;;5.93;2.00;;;15.00;99.90;;;;;;5069061;28;20559;-58
2023/03/27 10:49:57;;;;;;;3.97;2.17;;;13.80;99.90;;;;;;5075611;28;20248;-57
2023/03/27 10:52:33;;;;;;;8.57;2.30;;;13.00;99.90;;;;;;5071038;28;20738;-57
2023/03/27 10:55:15;;;;;;;4.20;1.80;;;12.50;99.90;;;;;;5072651;28;20276;-57
2023/03/27 10:57:51;;;;;;;3.93;1.90;;;12.10;99.90;;;;;;5065513;28;20276;-58
2023/03/27 11:00:31;;;;;;;8.77;2.23;;;11.90;99.90;;;;;;5068050;28;20220;-57
2023/03/27 11:03:04;;;;;;;3.83;1.60;;;12.10;99.90;;;;;;5072588;28;20312;-57
2023/03/27 11:05:37;;;;;;;2.30;1.60;;;13.00;99.90;;;;;;5069945;28;20326;-57
2023/03/27 11:08:11;;;;;;;4.47;1.70;;;12.90;99.90;;;;;;5076623;28;20564;-56
2023/03/27 11:10:42;;;;;;;4.60;1.80;;;13.10;99.90;;;;;;5073050;28;20582;-56
2023/03/27 11:13:17;;;;;;;2.73;1.73;;;13.20;99.90;;;;;;5069665;28;20217;-57
2023/03/27 11:15:52;;;;;;;2.77;1.50;;;12.60;99.90;;;;;;5074090;28;20370;-56
2023/03/27 11:18:25;;;;;;;5.60;2.03;;;11.40;99.90;;;;;;5070344;28;20745;-56
2023/03/27 11:20:58;;;;;;;4.90;1.73;;;11.00;99.90;;;;;;5073809;28;20222;-55
2023/03/27 11:23:33;;;;;;;4.97;1.93;;;10.70;99.90;;;;;;5070005;28;20681;-56
2023/03/27 11:26:05;;;;;;;4.20;1.80;;;10.50;99.90;;;;;;5072588;28;20227;-56
2023/03/27 11:28:41;;;;;;;4.07;2.10;;;10.30;99.90;;;;;;5073593;28;20253;-56
2023/03/27 11:31:16;;;;;;;3.37;2.20;;;10.20;99.90;;;;;;5065953;28;20219;-55
2023/03/27 11:33:48;;;;;;;8.33;2.10;;;10.00;99.90;;;;;;5068722;28;20247;-56
2023/03/27 11:36:38;;;;;;;5.27;1.97;;;10.40;99.90;;;;;;5061816;28;20213;-57
2023/03/27 11:39:16;;;;;;;3.47;1.97;;;11.50;99.90;;;;;;5060579;28;20294;-56
2023/03/27 11:41:51;;;;;;;2.83;1.80;;;11.50;99.90;;;;;;5062233;28;20646;-56
2023/03/27 11:44:20;;;;;;;8.43;2.10;;;11.30;99.90;;;;;;5058366;28;20725;-56
2023/03/27 11:47:11;;;;;;;5.57;1.87;;;11.10;99.90;;;;;;5057223;28;20189;-56
2023/03/27 11:49:54;;;;;;;3.80;1.70;;;11.40;99.90;;;;;;5051705;28;20250;-56
2023/03/27 11:52:38;;;;;;;4.30;1.53;;;11.40;99.90;;;;;;5069188;28;20271;-56
2023/03/27 11:55:14;;;;;;;3.43;1.93;;;11.00;99.90;;;;;;5058223;28;20224;-56
2023/03/27 11:57:58;;;;;;;10.53;2.33;;;10.10;99.90;;;;;;5064082;28;20220;-56
2023/03/27 12:00:32;;;;;;;6.63;2.77;;;8.90;99.90;;;;;;5065392;28;20219;-56
2023/03/27 12:03:18;;;;;;;7.50;2.57;;;8.30;99.90;;;;;;5065823;28;20590;-56
2023/03/27 12:06:00;;;;;;;5.23;2.50;;;7.80;99.90;;;;;;5065240;28;20208;-56
2023/03/27 12:08:36;;;;;;;10.87;2.63;;;7.90;99.90;;;;;;5067777;28;20218;-56
2023/03/27 12:11:08;;;;;;;7.43;2.60;;;8.30;99.90;;;;;;5069289;28;20269;-56
2023/03/27 12:13:59;;;;;;;7.23;2.27;;;9.40;99.90;;;;;;5069209;28;20269;-56
2023/03/27 12:16:47;;;;;;;3.77;2.30;;;10.00;99.90;;;;;;5091100;28;20212;-56
2023/03/27 12:19:34;;;;;;;4.87;1.80;;;10.40;99.90;;;;;;5087709;28;20306;-56
2023/03/27 12:22:18;;;;;;;5.37;1.87;;;11.10;99.90;;;;;;5062642;28;20233;-57
2023/03/27 12:25:05;;;;;;;8.83;2.40;;;11.70;99.90;;;;;;5071505;28;20220;-56
2023/03/27 12:27:46;;;;;;;5.57;1.80;;;12.20;99.90;;;;;;5072930;28;20265;-56
2023/03/27 12:30:23;;;;;;;5.30;1.73;;;11.90;99.90;;;;;;5073223;28;20226;-56
2023/03/27 12:33:20;;;;;;;7.67;1.80;;;11.10;99.90;;;;;;5063774;28;20682;-57
2023/03/27 12:35:53;;;;;;;1.60;1.50;;;10.40;99.90;;;;;;5034312;28;20225;-57
2023/03/27 12:38:28;;;;;;;2.57;1.80;;;10.10;99.90;;;;;;5072017;28;20224;-57
2023/03/27 12:41:12;;;;;;;1.77;1.67;;;10.00;99.90;;;;;;5067462;28;20299;-56
2023/03/27 12:43:45;;;;;;;8.87;1.97;;;10.10;99.90;;;;;;5068488;28;20184;-56
2023/03/27 12:46:19;;;;;;;4.27;1.80;;;10.20;99.90;;;;;;5093767;28;20678;-56
2023/03/27 12:48:56;;;;;;;6.93;1.97;;;10.70;99.90;;;;;;5092848;28;20219;-56
2023/03/27 12:51:47;;;;;;;4.30;2.00;;;11.30;99.90;;;;;;5092198;28;20268;-56
2023/03/27 12:54:26;;;;;;;3.63;1.80;;;12.00;99.90;;;;;;5066494;28;20223;-56
2023/03/27 12:57:03;;;;;;;5.70;2.13;;;12.60;99.90;;;;;;5071210;28;20215;-56
2023/03/27 12:59:36;;;;;;;4.77;1.87;;;13.30;99.90;;;;;;5072334;28;20219;-56
2023/03/27 13:02:58;;;;;;;3.60;2.03;;;13.10;99.90;;;;;;5076895;28;20812;-54
2023/03/27 13:05:58;;;;;;;12.97;2.33;;;12.00;99.90;;;;;;5074816;28;20736;-56
2023/03/27 13:08:48;;;;;;;3.13;1.93;;;11.20;99.90;;;;;;5082530;28;20266;-56
2023/03/27 13:11:35;;;;;;;6.13;2.00;;;10.60;99.90;;;;;;5067361;28;20251;-56
2023/03/27 13:14:33;;;;;;;8.07;2.30;;;10.60;99.90;;;;;;5076627;28;20223;-56
2023/03/27 13:17:21;;;;;;;6.73;2.23;;;10.80;99.90;;;;;;5091607;28;20227;-55
2023/03/27 13:20:07;;;;;;;6.27;2.57;;;10.80;99.90;;;;;;5091016;28;20236;-55
2023/03/27 13:22:49;;;;;;;8.33;2.37;;;11.10;99.90;;;;;;5065104;28;20200;-55
2023/03/27 13:25:33;;;;;;;5.17;1.83;;;11.50;99.90;;;;;;5061077;28;20200;-55
2023/03/27 13:28:27;;;;;;;10.50;1.80;;;11.70;99.90;;;;;;5064346;28;20682;-55